Aviation Digital Data Service (ADDS)

Output produced by METARs form (1900 UTC 18 June 2019)
found at http://www.aviationweather.gov/metar/data/
 
Forecast for: FKKR (GAROUA , CM)
Text: TAF FKKR 181100Z 1812/1818 26006KT 9999 FEW020
Forecast period: 1200 to 1800 UTC 18 June 2019
Forecast type: FROM: standard forecast or significant change
Winds: from the W (260 degrees) at 7 MPH (6 knots; 3.1 m/s)
Visibility: 6 or more miles 10+ km)
Ceiling: at least 12,000 feet AGL
Clouds: few clouds at 2000 feet AGL
Weather: no significant weather forecast for this period